createdAt,value
2018-04-20T00:00:56.752Z,0
2018-04-20T00:01:57.233Z,0
2018-04-20T00:02:55.353Z,0
2018-04-20T00:03:55.297Z,0
2018-04-20T00:04:55.951Z,0
2018-04-20T00:05:55.937Z,0
2018-04-20T00:06:55.286Z,0
2018-04-20T00:07:56.182Z,0
2018-04-20T00:08:55.854Z,0
2018-04-20T00:09:56.081Z,0
2018-04-20T00:10:56.579Z,0
2018-04-20T00:11:56.342Z,0
2018-04-20T00:12:56.354Z,0
2018-04-20T00:13:56.520Z,0
2018-04-20T00:14:56.644Z,0
2018-04-20T00:15:56.801Z,0
2018-04-20T00:16:57.541Z,0
2018-04-20T00:17:57.427Z,0
2018-04-20T00:18:57.524Z,0
2018-04-20T00:19:57.148Z,0
2018-04-20T00:20:57.540Z,0
2018-04-20T00:21:57.313Z,0
2018-04-20T00:22:57.181Z,0
2018-04-20T00:23:57.520Z,0
2018-04-20T00:24:58.199Z,0
2018-04-20T00:25:57.960Z,0
2018-04-20T00:26:58.369Z,0
2018-04-20T00:27:58.784Z,0
2018-04-20T00:28:58.916Z,0
2018-04-20T00:29:59.037Z,0
2018-04-20T00:30:59.701Z,0
2018-04-20T00:31:59.817Z,0
2018-04-20T00:33:00.343Z,0
2018-04-20T00:33:59.935Z,0
2018-04-20T00:35:01.079Z,0
2018-04-20T00:36:00.277Z,0
2018-04-20T00:37:00.292Z,0
2018-04-20T00:38:00.730Z,0
2018-04-20T00:39:00.354Z,0
2018-04-20T00:40:01.173Z,0
2018-04-20T00:41:01.095Z,0
2018-04-20T00:42:01.624Z,0
2018-04-20T00:43:01.923Z,0
2018-04-20T00:44:01.822Z,0
2018-04-20T00:45:01.959Z,0
2018-04-20T00:46:01.848Z,0
2018-04-20T00:47:02.690Z,0
2018-04-20T00:48:02.170Z,0
2018-04-20T00:49:02.469Z,0
2018-04-20T00:50:02.988Z,0
2018-04-20T00:51:02.982Z,0
2018-04-20T00:52:03.087Z,0
2018-04-20T00:53:03.355Z,0
2018-04-20T00:54:03.155Z,0
2018-04-20T00:55:03.167Z,0
2018-04-20T00:56:03.947Z,0
2018-04-20T00:57:03.581Z,0
2018-04-20T00:58:03.818Z,0
2018-04-20T00:59:04.037Z,0
2018-04-20T01:00:10.240Z,0
2018-04-20T01:01:05.735Z,0
2018-04-20T01:02:05.742Z,0
2018-04-20T01:03:03.473Z,0
2018-04-20T01:04:03.913Z,0
2018-04-20T01:05:04.405Z,0
2018-04-20T01:06:04.205Z,0
2018-04-20T01:07:04.677Z,0
2018-04-20T01:08:05.361Z,0
2018-04-20T01:09:05.220Z,0
2018-04-20T01:10:06.202Z,0
2018-04-20T01:11:05.473Z,0
2018-04-20T01:12:05.591Z,0
2018-04-20T01:13:05.451Z,0
2018-04-20T01:14:05.841Z,0
2018-04-20T01:15:05.981Z,0
2018-04-20T01:16:06.933Z,0
2018-04-20T01:17:06.599Z,0
2018-04-20T01:18:06.726Z,0
2018-04-20T01:19:06.924Z,0
2018-04-20T01:20:06.692Z,0
2018-04-20T01:21:06.479Z,0
2018-04-20T01:22:06.888Z,0
2018-04-20T01:23:07.304Z,0
2018-04-20T01:24:07.105Z,0
2018-04-20T01:25:07.763Z,0
2018-04-20T01:26:07.536Z,0
2018-04-20T01:27:08.193Z,0
2018-04-20T01:28:08.243Z,0
2018-04-20T01:29:08.747Z,0
2018-04-20T01:30:08.726Z,0
2018-04-20T01:31:07.997Z,0
2018-04-20T01:32:08.540Z,0
2018-04-20T01:33:08.419Z,0
2018-04-20T01:34:09.064Z,0
2018-04-20T01:35:08.529Z,0
2018-04-20T01:36:08.677Z,0
2018-04-20T01:37:09.384Z,0
2018-04-20T01:38:09.032Z,0
2018-04-20T01:39:09.210Z,0
2018-04-20T01:40:09.543Z,0
2018-04-20T01:41:10.199Z,0
2018-04-20T01:42:10.633Z,0
2018-04-20T01:43:10.673Z,0
2018-04-20T01:44:10.414Z,0
2018-04-20T01:45:10.592Z,0
2018-04-20T01:46:11.009Z,0
2018-04-20T01:47:11.173Z,0
2018-04-20T01:48:11.354Z,0
2018-04-20T01:49:11.761Z,0
2018-04-20T01:50:12.171Z,0
2018-04-20T01:51:11.607Z,0
2018-04-20T01:52:11.663Z,0
2018-04-20T01:53:11.715Z,0
2018-04-20T01:54:12.117Z,0
2018-04-20T01:55:12.026Z,0
2018-04-20T01:56:12.043Z,0
2018-04-20T01:57:11.818Z,0
2018-04-20T01:58:12.387Z,0
2018-04-20T01:59:12.821Z,0
2018-04-20T02:00:19.829Z,0
2018-04-20T02:01:19.351Z,0
2018-04-20T02:02:19.845Z,0
2018-04-20T02:03:20.605Z,0
2018-04-20T02:04:20.621Z,0
2018-04-20T02:05:20.407Z,0
2018-04-20T02:06:19.648Z,0
2018-04-20T02:07:20.469Z,0
2018-04-20T02:08:20.612Z,0
2018-04-20T02:09:20.257Z,0
2018-04-20T02:10:21.020Z,0
2018-04-20T02:11:21.143Z,0
2018-04-20T02:12:20.535Z,0
2018-04-20T02:13:20.858Z,0
2018-04-20T02:14:20.787Z,0
2018-04-20T02:15:20.850Z,0
2018-04-20T02:16:21.334Z,0
2018-04-20T02:17:21.262Z,0
2018-04-20T02:18:21.773Z,0
2018-04-20T02:19:21.977Z,0
2018-04-20T02:20:22.185Z,0
2018-04-20T02:21:22.287Z,0
2018-04-20T02:22:22.507Z,0
2018-04-20T02:23:22.523Z,0
2018-04-20T02:24:22.312Z,0
2018-04-20T02:25:22.765Z,0
2018-04-20T02:26:22.801Z,0
2018-04-20T02:27:23.000Z,0
2018-04-20T02:28:22.772Z,0
2018-04-20T02:29:23.444Z,0
2018-04-20T02:30:23.375Z,0
2018-04-20T02:31:23.123Z,0
2018-04-20T02:32:23.867Z,0
2018-04-20T02:33:23.149Z,0
2018-04-20T02:34:23.963Z,0
2018-04-20T02:35:24.024Z,0
2018-04-20T02:36:24.256Z,0
2018-04-20T02:37:23.965Z,0
2018-04-20T02:38:24.047Z,0
2018-04-20T02:39:23.549Z,0
2018-04-20T02:40:23.600Z,0
2018-04-20T02:41:23.904Z,0
2018-04-20T02:42:23.955Z,0
2018-04-20T02:43:24.242Z,0
2018-04-20T02:44:23.459Z,0
2018-04-20T02:45:24.274Z,0
2018-04-20T02:46:24.473Z,0
2018-04-20T02:47:24.225Z,0
2018-04-20T02:48:25.087Z,0
2018-04-20T02:49:24.753Z,0
2018-04-20T02:50:25.213Z,0
2018-04-20T02:51:25.410Z,0
2018-04-20T02:52:25.431Z,0
2018-04-20T02:53:26.133Z,0
2018-04-20T02:54:26.952Z,0
2018-04-20T02:55:25.915Z,0
2018-04-20T02:56:26.490Z,0
2018-04-20T02:57:26.453Z,0
2018-04-20T02:58:26.593Z,0
2018-04-20T02:59:26.508Z,0
2018-04-20T03:00:25.875Z,0
2018-04-20T03:01:26.616Z,0
2018-04-20T03:02:26.039Z,0
2018-04-20T03:03:26.933Z,0
2018-04-20T03:04:26.928Z,0
2018-04-20T03:05:26.657Z,0
2018-04-20T03:06:26.883Z,0
2018-04-20T03:07:26.906Z,0
2018-04-20T03:08:26.678Z,0
2018-04-20T03:09:27.334Z,0
2018-04-20T03:10:27.278Z,0
2018-04-20T03:11:27.557Z,0
2018-04-20T03:12:27.865Z,0
2018-04-20T03:13:27.345Z,0
2018-04-20T03:14:27.805Z,0
2018-04-20T03:15:28.366Z,0
2018-04-20T03:16:28.676Z,0
2018-04-20T03:17:28.634Z,0
2018-04-20T03:18:28.408Z,0
2018-04-20T03:19:29.193Z,0
2018-04-20T03:20:29.082Z,0
2018-04-20T03:21:29.040Z,0
2018-04-20T03:22:29.343Z,0
2018-04-20T03:23:29.408Z,0
2018-04-20T03:24:29.143Z,0
2018-04-20T03:25:29.126Z,0
2018-04-20T03:26:29.707Z,0
2018-04-20T03:27:29.397Z,0
2018-04-20T03:28:30.147Z,0
2018-04-20T03:29:29.918Z,0
2018-04-20T03:30:29.955Z,0
2018-04-20T03:31:30.675Z,0
2018-04-20T03:32:29.733Z,0
2018-04-20T03:33:30.513Z,0
2018-04-20T03:34:29.986Z,0
2018-04-20T03:35:30.265Z,0
2018-04-20T03:36:30.650Z,0
2018-04-20T03:37:30.723Z,0
2018-04-20T03:38:30.677Z,0
2018-04-20T03:39:30.387Z,0
2018-04-20T03:40:30.637Z,0
2018-04-20T03:41:31.102Z,0
2018-04-20T03:42:31.313Z,0
2018-04-20T03:43:31.603Z,0
2018-04-20T03:44:31.640Z,0
2018-04-20T03:45:31.655Z,0
2018-04-20T03:46:31.179Z,0
2018-04-20T03:47:31.913Z,0
2018-04-20T03:48:31.670Z,0
2018-04-20T03:49:31.620Z,0
2018-04-20T03:50:32.108Z,0
2018-04-20T03:51:32.104Z,0
2018-04-20T03:52:32.300Z,0
2018-04-20T03:53:32.772Z,0
2018-04-20T03:54:32.595Z,5
2018-04-20T03:55:32.583Z,5
2018-04-20T03:56:32.712Z,5
2018-04-20T03:57:32.666Z,5
2018-04-20T03:58:32.675Z,5
2018-04-20T03:59:32.624Z,5
2018-04-20T04:00:33.204Z,5
2018-04-20T04:01:32.488Z,5
2018-04-20T04:02:33.638Z,10
2018-04-20T04:03:33.375Z,10
2018-04-20T04:04:34.123Z,10
2018-04-20T04:05:33.827Z,10
2018-04-20T04:06:33.958Z,10
2018-04-20T04:07:34.082Z,15
2018-04-20T04:08:34.749Z,15
2018-04-20T04:09:34.579Z,15
2018-04-20T04:10:34.717Z,15
2018-04-20T04:11:35.477Z,15
2018-04-20T04:12:34.975Z,20
2018-04-20T04:13:35.400Z,20
2018-04-20T04:14:35.596Z,20
2018-04-20T04:15:35.843Z,20
2018-04-20T04:16:36.397Z,25
2018-04-20T04:17:35.998Z,25
2018-04-20T04:18:36.089Z,25
2018-04-20T04:19:36.386Z,25
2018-04-20T04:20:36.563Z,30
2018-04-20T04:21:36.139Z,30
2018-04-20T04:22:36.875Z,30
2018-04-20T04:23:37.588Z,30
2018-04-20T04:24:38.068Z,35
2018-04-20T04:25:37.617Z,35
2018-04-20T04:26:37.983Z,35
2018-04-20T04:27:38.144Z,40
2018-04-20T04:28:38.305Z,40
2018-04-20T04:29:38.047Z,40
2018-04-20T04:30:38.907Z,45
2018-04-20T04:31:38.651Z,45
2018-04-20T04:32:38.563Z,45
2018-04-20T04:33:39.561Z,50
2018-04-20T04:34:38.568Z,50
2018-04-20T04:35:39.316Z,55
2018-04-20T04:36:39.436Z,55
2018-04-20T04:37:39.499Z,55
2018-04-20T04:38:39.661Z,55
2018-04-20T04:39:39.775Z,60
2018-04-20T04:40:39.583Z,60
2018-04-20T04:41:39.369Z,60
2018-04-20T04:42:40.506Z,65
2018-04-20T04:43:39.963Z,65
2018-04-20T04:44:40.490Z,65
2018-04-20T04:45:40.380Z,70
2018-04-20T04:46:40.170Z,70
2018-04-20T04:47:40.916Z,70
2018-04-20T04:48:40.713Z,75
2018-04-20T04:49:40.810Z,75
2018-04-20T04:50:40.673Z,75
2018-04-20T04:51:41.312Z,80
2018-04-20T04:52:41.523Z,80
2018-04-20T04:53:41.841Z,85
2018-04-20T04:54:41.624Z,85
2018-04-20T04:55:42.265Z,90
2018-04-20T04:56:42.178Z,90
2018-04-20T04:57:42.902Z,95
2018-04-20T04:58:42.404Z,95
2018-04-20T04:59:42.991Z,100
2018-04-20T05:00:42.428Z,100
2018-04-20T05:01:42.605Z,105
2018-04-20T05:02:42.881Z,100
2018-04-20T05:03:42.593Z,100
2018-04-20T05:04:43.604Z,100
2018-04-20T05:05:43.381Z,105
2018-04-20T05:06:43.493Z,105
2018-04-20T05:07:43.960Z,110
2018-04-20T05:08:43.166Z,115
2018-04-20T05:09:43.507Z,125
2018-04-20T05:10:44.020Z,130
2018-04-20T05:11:43.807Z,135
2018-04-20T05:12:43.955Z,140
2018-04-20T05:13:44.005Z,140
2018-04-20T05:14:43.478Z,145
2018-04-20T05:15:44.056Z,155
2018-04-20T05:16:44.499Z,170
2018-04-20T05:17:44.904Z,205
2018-04-20T05:18:45.585Z,260
2018-04-20T05:19:45.644Z,305
2018-04-20T05:20:45.639Z,315
2018-04-20T05:21:45.176Z,350
2018-04-20T05:22:44.930Z,370
2018-04-20T05:23:45.684Z,385
2018-04-20T05:24:46.098Z,335
2018-04-20T05:25:46.141Z,375
2018-04-20T05:26:45.384Z,460
2018-04-20T05:27:45.909Z,470
2018-04-20T05:28:46.323Z,470
2018-04-20T05:29:47.004Z,505
2018-04-20T05:30:47.019Z,510
2018-04-20T05:31:47.433Z,520
2018-04-20T05:32:47.865Z,555
2018-04-20T05:33:47.860Z,645
2018-04-20T05:34:47.842Z,650
2018-04-20T05:35:47.427Z,495
2018-04-20T05:36:48.117Z,590
2018-04-20T05:37:48.283Z,595
2018-04-20T05:38:48.477Z,595
2018-04-20T05:39:49.159Z,560
2018-04-20T05:40:49.115Z,620
2018-04-20T05:41:49.207Z,715
2018-04-20T05:42:49.637Z,720
2018-04-20T05:43:49.155Z,745
2018-04-20T05:44:49.674Z,810
2018-04-20T05:45:49.745Z,855
2018-04-20T05:46:49.916Z,795
2018-04-20T05:47:49.819Z,810
2018-04-20T05:48:49.545Z,825
2018-04-20T05:49:50.017Z,805
2018-04-20T05:50:50.239Z,815
2018-04-20T05:51:50.523Z,810
2018-04-20T05:52:51.157Z,765
2018-04-20T05:53:51.090Z,805
2018-04-20T05:54:51.813Z,805
2018-04-20T05:55:51.569Z,815
2018-04-20T05:56:52.236Z,865
2018-04-20T05:57:52.009Z,945
2018-04-20T05:58:52.690Z,865
2018-04-20T05:59:52.437Z,865
2018-04-20T06:00:52.934Z,970
2018-04-20T06:01:53.143Z,1025
2018-04-20T06:02:53.192Z,945
2018-04-20T06:03:53.039Z,940
2018-04-20T06:04:53.802Z,1000
2018-04-20T06:05:54.002Z,1025
2018-04-20T06:06:54.126Z,1080
2018-04-20T06:07:54.614Z,1075
2018-04-20T06:08:54.364Z,1075
2018-04-20T06:09:54.406Z,1105
2018-04-20T06:10:54.519Z,1065
2018-04-20T06:11:54.465Z,1045
2018-04-20T06:12:54.967Z,1070
2018-04-20T06:13:55.456Z,1100
2018-04-20T06:14:55.573Z,1105
2018-04-20T06:15:55.783Z,1095
2018-04-20T06:16:55.972Z,1090
2018-04-20T06:17:56.466Z,1120
2018-04-20T06:18:56.507Z,1180
2018-04-20T06:19:56.524Z,1195
2018-04-20T06:20:57.511Z,1120
2018-04-20T06:21:57.400Z,1145
2018-04-20T06:22:57.154Z,1140
2018-04-20T06:23:57.203Z,1145
2018-04-20T06:24:57.198Z,1135
2018-04-20T06:25:57.448Z,1115
2018-04-20T06:26:58.147Z,1145
2018-04-20T06:27:58.065Z,1125
2018-04-20T06:28:58.020Z,1150
2018-04-20T06:29:58.596Z,1170
2018-04-20T06:30:58.807Z,1200
2018-04-20T06:31:58.147Z,1225
2018-04-20T06:32:59.123Z,1245
2018-04-20T06:33:58.548Z,1230
2018-04-20T06:34:59.125Z,1255
2018-04-20T06:35:58.607Z,1270
2018-04-20T06:36:59.404Z,1285
2018-04-20T06:37:59.742Z,1315
2018-04-20T06:39:00.034Z,1340
2018-04-20T06:39:59.463Z,1335
2018-04-20T06:40:59.722Z,1345
2018-04-20T06:41:59.833Z,1350
2018-04-20T06:42:59.766Z,1370
2018-04-20T06:44:00.510Z,1385
2018-04-20T06:45:00.653Z,1395
2018-04-20T06:46:02.021Z,1425
2018-04-20T06:47:01.411Z,1445
2018-04-20T06:48:02.254Z,1425
2018-04-20T06:49:01.275Z,1410
2018-04-20T06:50:01.736Z,1440
2018-04-20T06:51:01.872Z,1470
2018-04-20T06:52:02.235Z,1425
2018-04-20T06:53:02.197Z,1430
2018-04-20T06:54:02.356Z,1470
2018-04-20T06:55:02.331Z,1470
2018-04-20T06:56:02.272Z,1470
2018-04-20T06:57:03.054Z,995
2018-04-20T06:58:02.202Z,1505
2018-04-20T06:59:02.895Z,1465
2018-04-20T07:00:09.012Z,1505
2018-04-20T07:01:02.593Z,1565
2018-04-20T07:02:03.169Z,1520
2018-04-20T07:03:03.159Z,1470
2018-04-20T07:04:03.633Z,1545
2018-04-20T07:05:03.515Z,1530
2018-04-20T07:06:03.261Z,1530
2018-04-20T07:07:03.523Z,1490
2018-04-20T07:08:03.988Z,1355
2018-04-20T07:09:04.322Z,1405
2018-04-20T07:10:04.039Z,1295
2018-04-20T07:11:04.566Z,1275
2018-04-20T07:12:04.190Z,1300
2018-04-20T07:13:04.543Z,1315
2018-04-20T07:14:04.163Z,1405
2018-04-20T07:15:04.580Z,1405
2018-04-20T07:16:04.521Z,1310
2018-04-20T07:17:04.557Z,1185
2018-04-20T07:18:05.029Z,1345
2018-04-20T07:19:04.553Z,1460
2018-04-20T07:20:04.688Z,1465
2018-04-20T07:21:05.168Z,1560
2018-04-20T07:22:05.650Z,1600
2018-04-20T07:23:05.914Z,1620
2018-04-20T07:24:05.893Z,1625
2018-04-20T07:25:05.396Z,1605
2018-04-20T07:26:05.870Z,1615
2018-04-20T07:27:06.364Z,1700
2018-04-20T07:28:06.407Z,1670
2018-04-20T07:29:06.436Z,1645
2018-04-20T07:30:06.684Z,1650
2018-04-20T07:31:06.528Z,1760
2018-04-20T07:32:06.380Z,1735
2018-04-20T07:33:06.616Z,1650
2018-04-20T07:34:06.177Z,1635
2018-04-20T07:35:05.887Z,1695
2018-04-20T07:36:06.457Z,1655
2018-04-20T07:37:06.953Z,1725
2018-04-20T07:38:06.992Z,1710
2018-04-20T07:39:07.075Z,1610
2018-04-20T07:40:07.634Z,1600
2018-04-20T07:41:07.133Z,1545
2018-04-20T07:42:06.893Z,1540
2018-04-20T07:43:06.453Z,1540
2018-04-20T07:44:06.970Z,1575
2018-04-20T07:45:07.642Z,1670
2018-04-20T07:46:07.534Z,1665
2018-04-20T07:47:07.200Z,1700
2018-04-20T07:48:08.050Z,1810
2018-04-20T07:49:07.837Z,1830
2018-04-20T07:50:08.265Z,1935
2018-04-20T07:51:07.963Z,1930
2018-04-20T07:52:08.036Z,1890
2018-04-20T07:53:08.233Z,1890
2018-04-20T07:54:08.531Z,1845
2018-04-20T07:55:08.467Z,1850
2018-04-20T07:56:09.077Z,1890
2018-04-20T07:57:09.035Z,1860
2018-04-20T07:58:09.345Z,1870
2018-04-20T07:59:09.669Z,1845
2018-04-20T08:00:22.466Z,1805
2018-04-20T08:01:09.421Z,1880
2018-04-20T08:02:09.592Z,1910
2018-04-20T08:03:09.523Z,1860
2018-04-20T08:04:09.794Z,1910
2018-04-20T08:05:10.547Z,1925
2018-04-20T08:06:10.007Z,1940
2018-04-20T08:07:10.404Z,1985
2018-04-20T08:08:10.844Z,2045
2018-04-20T08:09:11.016Z,2075
2018-04-20T08:10:10.643Z,1965
2018-04-20T08:11:11.256Z,2000
2018-04-20T08:12:11.874Z,2080
2018-04-20T08:13:11.828Z,2000
2018-04-20T08:14:11.591Z,1945
2018-04-20T08:15:12.179Z,1960
2018-04-20T08:16:12.348Z,2020
2018-04-20T08:17:12.349Z,2160
2018-04-20T08:18:12.161Z,2125
2018-04-20T08:19:12.296Z,2150
2018-04-20T08:20:12.439Z,2040
2018-04-20T08:21:12.724Z,2040
2018-04-20T08:22:12.553Z,1850
2018-04-20T08:23:12.204Z,1610
2018-04-20T08:24:12.612Z,1550
2018-04-20T08:25:12.253Z,1535
2018-04-20T08:26:13.355Z,1415
2018-04-20T08:27:12.879Z,1425
2018-04-20T08:28:12.892Z,1650
2018-04-20T08:29:13.068Z,1905
2018-04-20T08:30:12.971Z,2040
2018-04-20T08:31:13.276Z,1860
2018-04-20T08:32:13.709Z,1650
2018-04-20T08:33:13.617Z,1685
2018-04-20T08:34:14.768Z,1715
2018-04-20T08:35:14.675Z,1820
2018-04-20T08:36:14.327Z,1870
2018-04-20T08:37:15.025Z,1985
2018-04-20T08:38:14.608Z,2235
2018-04-20T08:39:15.210Z,2375
2018-04-20T08:40:15.443Z,2380
2018-04-20T08:41:15.661Z,2390
2018-04-20T08:42:15.760Z,2410
2018-04-20T08:43:15.666Z,2425
2018-04-20T08:44:15.923Z,2440
2018-04-20T08:45:15.151Z,2380
2018-04-20T08:46:15.585Z,2345
2018-04-20T08:47:16.441Z,2260
2018-04-20T08:48:16.481Z,2310
2018-04-20T08:49:18.220Z,2455
2018-04-20T08:50:16.295Z,2470
2018-04-20T08:51:16.497Z,2410
2018-04-20T08:52:16.552Z,2175
2018-04-20T08:53:16.863Z,2235
2018-04-20T08:54:16.564Z,2185
2018-04-20T08:55:16.842Z,2020
2018-04-20T08:56:17.264Z,1935
2018-04-20T08:57:17.682Z,1880
2018-04-20T08:58:17.592Z,1890
2018-04-20T08:59:18.425Z,1820
2018-04-20T09:00:18.491Z,1750
2018-04-20T09:01:20.452Z,1860
2018-04-20T09:02:17.899Z,2050
2018-04-20T09:03:18.149Z,1990
2018-04-20T09:04:18.235Z,1885
2018-04-20T09:05:18.448Z,2060
2018-04-20T09:06:18.570Z,2040
2018-04-20T09:07:18.279Z,2025
2018-04-20T09:08:19.039Z,2095
2018-04-20T09:09:18.801Z,2285
2018-04-20T09:10:20.062Z,2365
2018-04-20T09:11:19.716Z,2275
2018-04-20T09:12:19.905Z,2300
2018-04-20T09:13:20.397Z,2340
2018-04-20T09:14:21.029Z,2250
2018-04-20T09:15:20.058Z,2305
2018-04-20T09:16:20.217Z,2370
2018-04-20T09:17:20.251Z,2395
2018-04-20T09:18:20.036Z,2455
2018-04-20T09:19:20.069Z,2475
2018-04-20T09:20:20.130Z,2585
2018-04-20T09:21:20.378Z,2575
2018-04-20T09:22:20.943Z,2530
2018-04-20T09:23:20.172Z,2630
2018-04-20T09:24:20.770Z,2685
2018-04-20T09:25:20.541Z,2615
2018-04-20T09:26:20.049Z,2690
2018-04-20T09:27:20.638Z,2865
2018-04-20T09:28:21.085Z,2650
2018-04-20T09:29:20.338Z,2540
2018-04-20T09:30:22.110Z,2530
2018-04-20T09:31:22.364Z,2510
2018-04-20T09:32:22.707Z,2630
2018-04-20T09:33:21.466Z,2630
2018-04-20T09:34:20.723Z,2650
2018-04-20T09:35:21.867Z,2675
2018-04-20T09:36:21.532Z,2510
2018-04-20T09:37:21.532Z,2535
2018-04-20T09:38:21.578Z,2705
2018-04-20T09:39:21.770Z,2840
2018-04-20T09:40:21.209Z,2880
2018-04-20T09:41:21.830Z,2950
2018-04-20T09:42:22.026Z,2870
2018-04-20T09:43:22.054Z,2570
2018-04-20T09:44:21.836Z,2540
2018-04-20T09:45:22.168Z,2460
2018-04-20T09:46:22.065Z,1370
2018-04-20T09:47:21.951Z,640
2018-04-20T09:48:22.244Z,570
2018-04-20T09:49:22.298Z,550
2018-04-20T09:50:22.327Z,520
2018-04-20T09:51:22.175Z,510
2018-04-20T09:52:22.141Z,500
2018-04-20T09:53:22.168Z,490
2018-04-20T09:54:22.533Z,485
2018-04-20T09:55:22.492Z,480
2018-04-20T09:56:22.293Z,475
2018-04-20T09:57:23.347Z,470
2018-04-20T09:58:23.578Z,470
2018-04-20T09:59:23.408Z,465
2018-04-20T10:00:23.321Z,460
2018-04-20T10:01:23.268Z,450
2018-04-20T10:02:23.338Z,445
2018-04-20T10:03:23.582Z,440
2018-04-20T10:04:23.011Z,435
2018-04-20T10:05:23.925Z,425
2018-04-20T10:06:24.164Z,410
2018-04-20T10:07:23.400Z,400
2018-04-20T10:08:24.048Z,400
2018-04-20T10:09:24.270Z,395
2018-04-20T10:10:24.591Z,385
2018-04-20T10:11:24.684Z,380
2018-04-20T10:12:24.610Z,380
2018-04-20T10:13:24.866Z,370
2018-04-20T10:14:24.889Z,370
2018-04-20T10:15:25.360Z,365
2018-04-20T10:16:25.272Z,365
2018-04-20T10:17:27.077Z,355
2018-04-20T10:18:26.059Z,355
2018-04-20T10:19:25.777Z,350
2018-04-20T10:20:26.624Z,345
2018-04-20T10:21:26.463Z,340
2018-04-20T10:22:27.433Z,340
2018-04-20T10:23:26.751Z,335
2018-04-20T10:24:27.017Z,330
2018-04-20T10:25:27.859Z,325
2018-04-20T10:26:27.798Z,325
2018-04-20T10:27:27.504Z,320
2018-04-20T10:28:28.052Z,320
2018-04-20T10:29:27.347Z,315
2018-04-20T10:30:28.200Z,315
2018-04-20T10:31:27.775Z,315
2018-04-20T10:32:28.359Z,310
2018-04-20T10:33:28.372Z,305
2018-04-20T10:34:28.434Z,305
2018-04-20T10:35:28.675Z,305
2018-04-20T10:36:29.193Z,305
2018-04-20T10:37:29.261Z,300
2018-04-20T10:38:28.993Z,300
2018-04-20T10:39:29.124Z,295
2018-04-20T10:40:29.300Z,295
2018-04-20T10:41:28.825Z,295
2018-04-20T10:42:29.354Z,295
2018-04-20T10:43:29.458Z,290
2018-04-20T10:44:29.440Z,285
2018-04-20T10:45:29.493Z,280
2018-04-20T10:46:30.270Z,280
2018-04-20T10:47:30.148Z,280
2018-04-20T10:48:30.254Z,275
2018-04-20T10:49:30.843Z,275
2018-04-20T10:50:30.633Z,275
2018-04-20T10:51:30.689Z,275
2018-04-20T10:52:31.000Z,270
2018-04-20T10:53:31.046Z,265
2018-04-20T10:54:30.759Z,265
2018-04-20T10:55:31.378Z,260
2018-04-20T10:56:31.617Z,260
2018-04-20T10:57:31.142Z,255
2018-04-20T10:58:31.302Z,255
2018-04-20T10:59:31.854Z,255
2018-04-20T11:00:31.917Z,250
2018-04-20T11:01:31.680Z,250
2018-04-20T11:02:31.397Z,250
2018-04-20T11:03:33.040Z,250
2018-04-20T11:04:32.350Z,240
2018-04-20T11:05:31.944Z,240
2018-04-20T11:06:34.205Z,240
2018-04-20T11:07:34.701Z,235
2018-04-20T11:08:32.851Z,235
2018-04-20T11:09:32.915Z,235
2018-04-20T11:10:32.804Z,235
2018-04-20T11:11:34.741Z,230
2018-04-20T11:12:33.863Z,235
2018-04-20T11:13:32.707Z,230
2018-04-20T11:14:33.577Z,230
2018-04-20T11:15:33.482Z,230
2018-04-20T11:16:34.862Z,225
2018-04-20T11:17:33.623Z,225
2018-04-20T11:18:34.168Z,225
2018-04-20T11:19:33.570Z,220
2018-04-20T11:20:33.325Z,220
2018-04-20T11:21:34.083Z,220
2018-04-20T11:22:34.002Z,220
2018-04-20T11:23:34.291Z,220
2018-04-20T11:24:33.817Z,220
2018-04-20T11:25:34.171Z,215
2018-04-20T11:26:34.623Z,215
2018-04-20T11:27:34.308Z,215
2018-04-20T11:28:34.699Z,215
2018-04-20T11:29:34.640Z,215
2018-04-20T11:30:35.094Z,215
2018-04-20T11:31:34.966Z,215
2018-04-20T11:32:34.624Z,210
2018-04-20T11:33:34.122Z,210
2018-04-20T11:34:34.598Z,210
2018-04-20T11:35:35.421Z,205
2018-04-20T11:36:35.296Z,205
2018-04-20T11:37:35.134Z,205
2018-04-20T11:38:35.690Z,200
2018-04-20T11:39:35.287Z,200
2018-04-20T11:40:36.126Z,200
2018-04-20T11:41:36.894Z,195
2018-04-20T11:42:36.970Z,185
2018-04-20T11:43:36.368Z,185
2018-04-20T11:44:36.186Z,180
2018-04-20T11:45:35.837Z,180
2018-04-20T11:46:35.800Z,180
2018-04-20T11:47:36.976Z,180
2018-04-20T11:48:36.259Z,180
2018-04-20T11:49:36.938Z,180
2018-04-20T11:50:36.670Z,180
2018-04-20T11:51:36.647Z,180
2018-04-20T11:52:37.196Z,175
2018-04-20T11:53:36.772Z,175
2018-04-20T11:54:35.957Z,175
2018-04-20T11:55:37.127Z,175
2018-04-20T11:56:36.918Z,175
2018-04-20T11:57:37.232Z,175
2018-04-20T11:58:37.034Z,175
2018-04-20T11:59:37.780Z,175
2018-04-20T12:00:37.848Z,175
2018-04-20T12:01:38.000Z,175
2018-04-20T12:02:38.189Z,170
2018-04-20T12:03:38.092Z,170
2018-04-20T12:04:38.602Z,170
2018-04-20T12:05:38.592Z,170
2018-04-20T12:06:38.892Z,170
2018-04-20T12:07:38.802Z,170
2018-04-20T12:08:38.475Z,170
2018-04-20T12:09:38.847Z,170
2018-04-20T12:10:38.650Z,170
2018-04-20T12:11:38.591Z,170
2018-04-20T12:12:39.519Z,170
2018-04-20T12:13:39.488Z,165
2018-04-20T12:14:40.149Z,165
2018-04-20T12:15:38.957Z,165
2018-04-20T12:16:39.728Z,165
2018-04-20T12:17:40.098Z,165
2018-04-20T12:18:40.665Z,165
2018-04-20T12:19:40.447Z,165
2018-04-20T12:20:40.636Z,165
2018-04-20T12:21:40.582Z,165
2018-04-20T12:22:40.831Z,160
2018-04-20T12:23:40.639Z,160
2018-04-20T12:24:40.473Z,160
2018-04-20T12:25:40.623Z,160
2018-04-20T12:26:41.292Z,160
2018-04-20T12:27:41.360Z,160
2018-04-20T12:28:41.115Z,160
2018-04-20T12:29:41.595Z,160
2018-04-20T12:30:41.612Z,160
2018-04-20T12:31:42.485Z,160
2018-04-20T12:32:41.876Z,155
2018-04-20T12:33:41.664Z,155
2018-04-20T12:34:42.013Z,155
2018-04-20T12:35:41.262Z,155
2018-04-20T12:36:42.098Z,155
2018-04-20T12:37:42.440Z,155
2018-04-20T12:38:42.340Z,155
2018-04-20T12:39:42.781Z,155
2018-04-20T12:40:43.172Z,150
2018-04-20T12:41:43.851Z,150
2018-04-20T12:42:43.906Z,150
2018-04-20T12:43:43.149Z,150
2018-04-20T12:44:43.731Z,150
2018-04-20T12:45:44.583Z,150
2018-04-20T12:46:44.530Z,150
2018-04-20T12:47:44.581Z,150
2018-04-20T12:48:44.276Z,150
2018-04-20T12:49:44.964Z,150
2018-04-20T12:50:45.033Z,145
2018-04-20T12:51:45.034Z,145
2018-04-20T12:52:45.491Z,145
2018-04-20T12:53:44.878Z,145
2018-04-20T12:54:45.370Z,145
2018-04-20T12:55:46.202Z,145
2018-04-20T12:56:45.853Z,145
2018-04-20T12:57:46.297Z,145
2018-04-20T12:58:46.835Z,150
2018-04-20T12:59:47.496Z,145
2018-04-20T13:00:47.769Z,145
2018-04-20T13:01:47.111Z,145
2018-04-20T13:02:47.974Z,145
2018-04-20T13:03:48.316Z,140
2018-04-20T13:04:48.146Z,140
2018-04-20T13:05:48.208Z,140
2018-04-20T13:06:47.966Z,140
2018-04-20T13:07:48.328Z,140
2018-04-20T13:08:48.549Z,140
2018-04-20T13:09:48.273Z,140
2018-04-20T13:10:48.665Z,140
2018-04-20T13:11:49.321Z,140
2018-04-20T13:12:49.150Z,140
2018-04-20T13:13:48.799Z,135
2018-04-20T13:14:49.610Z,135
2018-04-20T13:15:50.021Z,135
2018-04-20T13:16:50.697Z,135
2018-04-20T13:17:50.896Z,135
2018-04-20T13:18:50.854Z,135
2018-04-20T13:19:51.003Z,135
2018-04-20T13:20:50.914Z,135
2018-04-20T13:21:51.094Z,135
2018-04-20T13:22:50.970Z,135
2018-04-20T13:23:51.962Z,135
2018-04-20T13:24:51.573Z,135
2018-04-20T13:25:52.227Z,135
2018-04-20T13:26:52.360Z,130
2018-04-20T13:27:52.833Z,130
2018-04-20T13:28:52.801Z,130
2018-04-20T13:29:53.533Z,130
2018-04-20T13:30:53.512Z,130
2018-04-20T13:31:53.516Z,130
2018-04-20T13:32:53.568Z,130
2018-04-20T13:33:53.507Z,130
2018-04-20T13:34:54.005Z,125
2018-04-20T13:35:54.353Z,125
2018-04-20T13:36:54.681Z,125
2018-04-20T13:37:54.470Z,125
2018-04-20T13:38:54.693Z,125
2018-04-20T13:39:55.448Z,125
2018-04-20T13:40:55.296Z,125
2018-04-20T13:41:55.663Z,125
2018-04-20T13:42:56.232Z,125
2018-04-20T13:43:55.287Z,125
2018-04-20T13:44:55.591Z,125
2018-04-20T13:45:55.032Z,125
2018-04-20T13:46:55.061Z,125
2018-04-20T13:47:55.427Z,125
2018-04-20T13:48:55.940Z,125
2018-04-20T13:49:55.810Z,125
2018-04-20T13:50:56.130Z,120
2018-04-20T13:51:55.791Z,120
2018-04-20T13:52:56.331Z,120
2018-04-20T13:53:56.063Z,120
2018-04-20T13:54:56.468Z,120
2018-04-20T13:55:58.208Z,120
2018-04-20T13:56:56.740Z,120
2018-04-20T13:57:57.854Z,120
2018-04-20T13:58:56.708Z,115